createdAt,value
2018-12-08T00:02:27.991Z,7.80
2018-12-08T00:04:56.200Z,2.57
2018-12-08T00:07:24.342Z,2.93
2018-12-08T00:09:52.378Z,8.67
2018-12-08T00:12:20.411Z,2.80
2018-12-08T00:14:48.532Z,6.43
2018-12-08T00:17:16.661Z,2.20
2018-12-08T00:19:44.721Z,6.37
2018-12-08T00:22:12.775Z,5.43
2018-12-08T00:24:40.886Z,3.30
2018-12-08T00:27:08.981Z,4.10
2018-12-08T00:29:37.035Z,4.23
2018-12-08T00:32:05.063Z,5.90
2018-12-08T00:34:33.220Z,6.00
2018-12-08T00:37:01.280Z,8.90
2018-12-08T00:39:29.305Z,8.37
2018-12-08T00:41:57.417Z,7.80
2018-12-08T00:44:25.455Z,7.70
2018-12-08T00:46:53.535Z,14.20
2018-12-08T00:49:21.578Z,11.30
2018-12-08T00:51:49.704Z,14.10
2018-12-08T00:54:17.741Z,9.97
2018-12-08T00:56:45.885Z,12.17
2018-12-08T00:59:14.029Z,33.83
2018-12-08T01:01:42.523Z,9.07
2018-12-08T01:04:10.562Z,11.60
2018-12-08T01:06:38.598Z,8.67
2018-12-08T01:09:08.631Z,13.63
2018-12-08T01:11:36.729Z,15.50
2018-12-08T01:14:04.865Z,16.07
2018-12-08T01:16:32.911Z,11.63
2018-12-08T01:19:00.950Z,12.17
2018-12-08T01:21:29.010Z,12.97
2018-12-08T01:23:57.049Z,15.60
2018-12-08T01:26:25.175Z,22.90
2018-12-08T01:28:53.209Z,10.00
2018-12-08T01:31:21.247Z,16.90
2018-12-08T01:33:49.319Z,19.40
2018-12-08T01:36:17.347Z,11.57
2018-12-08T01:38:45.379Z,27.27
2018-12-08T01:41:13.460Z,19.83
2018-12-08T01:43:41.574Z,14.30
2018-12-08T01:46:09.610Z,15.20
2018-12-08T01:48:37.677Z,16.13
2018-12-08T01:51:05.882Z,15.33
2018-12-08T01:53:34.031Z,12.67
2018-12-08T01:56:02.204Z,18.37
2018-12-08T01:58:30.225Z,20.33
2018-12-08T02:00:58.280Z,10.70
2018-12-08T02:03:26.349Z,16.17
2018-12-08T02:05:54.390Z,14.13
2018-12-08T02:08:22.497Z,9.10
2018-12-08T02:10:50.536Z,13.93
2018-12-08T02:13:18.662Z,8.77
2018-12-08T02:15:46.699Z,4.27
2018-12-08T02:18:14.788Z,8.73
2018-12-08T02:20:42.862Z,8.73
2018-12-08T02:23:10.877Z,3.80
2018-12-08T02:25:38.947Z,8.43
2018-12-08T02:28:07.064Z,9.47
2018-12-08T02:30:35.118Z,8.90
2018-12-08T02:33:03.153Z,13.67
2018-12-08T02:35:31.222Z,8.77
2018-12-08T02:37:59.315Z,5.73
2018-12-08T02:40:27.428Z,12.03
2018-12-08T02:42:55.570Z,10.20
2018-12-08T02:45:23.599Z,7.87
2018-12-08T02:47:51.714Z,18.13
2018-12-08T02:50:19.887Z,9.90
2018-12-08T02:52:47.998Z,9.47
2018-12-08T02:55:16.101Z,14.77
2018-12-08T02:57:44.225Z,14.87
2018-12-08T03:00:12.389Z,12.93
2018-12-08T03:02:40.490Z,11.00
2018-12-08T03:05:08.606Z,17.10
2018-12-08T03:07:36.725Z,12.57
2018-12-08T03:10:05.325Z,6.77
2018-12-08T03:12:33.379Z,11.37
2018-12-08T03:15:01.457Z,9.97
2018-12-08T03:17:29.555Z,9.30
2018-12-08T03:19:57.661Z,18.00
2018-12-08T03:22:26.118Z,7.47
2018-12-08T03:24:54.167Z,8.60
2018-12-08T03:27:22.213Z,14.00
2018-12-08T03:29:50.244Z,7.13
2018-12-08T03:32:18.306Z,7.40
2018-12-08T03:34:46.401Z,12.70
2018-12-08T03:37:14.484Z,6.93
2018-12-08T03:39:42.635Z,10.80
2018-12-08T03:42:10.662Z,4.70
2018-12-08T03:44:38.699Z,12.57
2018-12-08T03:47:06.964Z,12.80
2018-12-08T03:49:35.007Z,7.67
2018-12-08T03:52:03.126Z,11.07
2018-12-08T03:54:31.178Z,6.27
2018-12-08T03:56:59.296Z,9.30
2018-12-08T03:59:27.334Z,10.73
2018-12-08T04:01:55.658Z,15.10
2018-12-08T04:04:23.753Z,14.23
2018-12-08T04:06:52.120Z,7.43
2018-12-08T04:09:20.137Z,10.53
2018-12-08T04:11:48.153Z,7.67
2018-12-08T04:14:16.214Z,10.10
2018-12-08T04:16:44.238Z,4.27
2018-12-08T04:19:12.300Z,16.07
2018-12-08T04:21:40.440Z,8.00
2018-12-08T04:24:08.550Z,8.70
2018-12-08T04:26:36.584Z,8.93
2018-12-08T04:29:04.743Z,9.77
2018-12-08T04:31:32.838Z,7.07
2018-12-08T04:34:01.013Z,10.47
2018-12-08T04:36:29.059Z,12.67
2018-12-08T04:38:57.189Z,10.07
2018-12-08T04:41:25.287Z,4.83
2018-12-08T04:43:53.331Z,10.10
2018-12-08T04:46:21.442Z,9.73
2018-12-08T04:48:49.545Z,11.90
2018-12-08T04:51:17.616Z,6.00
2018-12-08T04:53:45.641Z,4.50
2018-12-08T04:56:13.770Z,2.70
2018-12-08T04:58:41.853Z,6.97
2018-12-08T05:01:09.976Z,5.07
2018-12-08T05:03:38.075Z,4.90
2018-12-08T05:06:06.230Z,3.60
2018-12-08T05:08:34.313Z,2.93
2018-12-08T05:11:02.406Z,6.73
2018-12-08T05:13:30.457Z,5.63
2018-12-08T05:15:58.478Z,8.13
2018-12-08T05:18:26.527Z,9.20
2018-12-08T05:20:54.618Z,15.73
2018-12-08T05:23:22.642Z,29.13
2018-12-08T05:25:50.667Z,9.53
2018-12-08T05:28:18.691Z,5.53
2018-12-08T05:30:46.715Z,3.90
2018-12-08T05:33:14.739Z,2.23
2018-12-08T05:35:42.763Z,3.27
2018-12-08T05:38:10.862Z,2.80
2018-12-08T05:40:38.893Z,5.27
2018-12-08T05:43:07.202Z,1.83
2018-12-08T05:45:35.305Z,1.50
2018-12-08T05:48:03.392Z,8.60
2018-12-08T05:50:31.413Z,4.67
2018-12-08T05:52:59.440Z,2.50
2018-12-08T05:55:27.470Z,6.17
2018-12-08T05:57:55.490Z,2.30
2018-12-08T06:00:23.865Z,0.50
2018-12-08T06:02:51.870Z,0.83
2018-12-08T06:05:19.979Z,0.60
2018-12-08T06:07:48.076Z,0.40
2018-12-08T06:10:16.119Z,0.50
2018-12-08T06:12:44.166Z,2.37
2018-12-08T06:15:12.189Z,0.43
2018-12-08T06:17:40.196Z,0.50
2018-12-08T06:20:08.405Z,0.57
2018-12-08T06:22:36.511Z,0.47
2018-12-08T06:25:05.880Z,1.07
2018-12-08T06:28:38.997Z,6.30
2018-12-08T06:31:07.281Z,0.60
2018-12-08T06:33:35.364Z,0.60
2018-12-08T06:36:03.412Z,0.50
2018-12-08T06:38:31.437Z,1.80
2018-12-08T06:40:59.549Z,1.63
2018-12-08T06:43:27.564Z,0.63
2018-12-08T06:45:55.669Z,0.50
2018-12-08T06:48:23.969Z,0.90
2018-12-08T06:50:52.010Z,0.67
2018-12-08T06:53:20.041Z,1.63
2018-12-08T06:55:48.269Z,1.33
2018-12-08T06:58:16.367Z,3.20
2018-12-08T07:00:44.532Z,3.27
2018-12-08T07:03:12.678Z,6.20
2018-12-08T07:05:40.842Z,4.27
2018-12-08T07:08:09.028Z,1.53
2018-12-08T07:10:37.202Z,6.43
2018-12-08T07:13:05.335Z,1.37
2018-12-08T07:15:33.362Z,1.10
2018-12-08T07:18:01.401Z,3.53
2018-12-08T07:20:29.437Z,0.87
2018-12-08T07:22:57.520Z,2.93
2018-12-08T07:25:25.686Z,5.43
2018-12-08T07:27:53.948Z,3.17
2018-12-08T07:30:22.037Z,1.03
2018-12-08T07:32:50.103Z,2.30
2018-12-08T07:35:18.152Z,2.10
2018-12-08T07:37:46.208Z,2.93
2018-12-08T07:40:14.375Z,3.53
2018-12-08T07:42:42.428Z,2.13
2018-12-08T07:45:10.551Z,1.43
2018-12-08T07:47:38.584Z,1.03
2018-12-08T07:50:08.662Z,0.70
2018-12-08T07:52:36.698Z,0.83
2018-12-08T07:55:06.242Z,3.43
2018-12-08T07:57:34.332Z,0.60
2018-12-08T08:00:02.432Z,1.00
2018-12-08T08:02:30.623Z,1.07
2018-12-08T08:04:58.718Z,1.00
2018-12-08T08:07:26.839Z,1.27
2018-12-08T08:09:54.861Z,2.77
2018-12-08T08:12:22.968Z,2.50
2018-12-08T08:14:51.025Z,3.43
2018-12-08T08:17:19.052Z,0.60
2018-12-08T08:19:47.091Z,1.13
2018-12-08T08:22:15.115Z,1.40
2018-12-08T08:24:43.242Z,1.33
2018-12-08T08:27:11.281Z,0.50
2018-12-08T08:29:39.381Z,0.67
2018-12-08T08:32:07.450Z,2.00
2018-12-08T08:34:35.640Z,1.20
2018-12-08T08:37:03.740Z,0.90
2018-12-08T08:39:31.826Z,0.60
2018-12-08T08:41:59.931Z,2.33
2018-12-08T08:44:28.023Z,2.17
2018-12-08T08:46:56.050Z,1.63
2018-12-08T08:49:24.154Z,1.57
2018-12-08T08:51:52.247Z,2.97
2018-12-08T08:54:20.329Z,2.50
2018-12-08T08:56:48.462Z,0.70
2018-12-08T08:59:16.565Z,0.60
2018-12-08T09:01:44.629Z,3.80
2018-12-08T09:04:12.697Z,0.50
2018-12-08T09:06:40.741Z,2.03
2018-12-08T09:09:08.889Z,0.50
2018-12-08T09:11:37.010Z,5.20
2018-12-08T09:14:13.072Z,0.60
2018-12-08T09:16:35.498Z,0.80
2018-12-08T09:19:03.581Z,0.80
2018-12-08T09:21:31.699Z,0.60
2018-12-08T09:23:59.797Z,0.50
2018-12-08T09:26:27.906Z,1.77
2018-12-08T09:28:55.993Z,0.50
2018-12-08T09:31:24.090Z,1.00
2018-12-08T09:33:52.993Z,1.57
2018-12-08T09:36:21.231Z,0.50
2018-12-08T09:38:49.387Z,0.50
2018-12-08T09:41:17.436Z,0.50
2018-12-08T09:43:45.651Z,0.60
2018-12-08T09:46:13.705Z,0.50
2018-12-08T09:48:41.740Z,1.17
2018-12-08T09:51:09.816Z,0.40
2018-12-08T09:53:37.880Z,0.70
2018-12-08T09:56:05.944Z,4.57
2018-12-08T09:58:34.067Z,1.00
2018-12-08T10:01:02.238Z,0.50
2018-12-08T10:03:30.274Z,2.60
2018-12-08T10:05:58.453Z,1.50
2018-12-08T10:08:26.486Z,5.53
2018-12-08T10:10:54.555Z,2.50
2018-12-08T10:13:22.658Z,0.90
2018-12-08T10:15:50.808Z,6.50
2018-12-08T10:18:18.836Z,0.50
2018-12-08T10:20:46.884Z,0.60
2018-12-08T10:23:14.930Z,0.90
2018-12-08T10:25:43.025Z,2.43
2018-12-08T10:28:11.076Z,0.83
2018-12-08T10:30:39.097Z,1.67
2018-12-08T10:33:07.210Z,0.60
2018-12-08T10:35:35.669Z,1.47
2018-12-08T10:38:04.261Z,1.77
2018-12-08T10:40:32.434Z,0.87
2018-12-08T10:43:00.542Z,2.00
2018-12-08T10:45:28.563Z,0.80
2018-12-08T10:47:56.670Z,1.23
2018-12-08T10:50:24.693Z,3.03
2018-12-08T10:52:52.811Z,1.20
2018-12-08T10:55:20.838Z,1.63
2018-12-08T10:57:48.918Z,1.23
2018-12-08T11:00:22.239Z,1.90
2018-12-08T11:02:53.305Z,1.33
2018-12-08T11:05:21.635Z,2.77
2018-12-08T11:07:49.691Z,1.67
2018-12-08T11:10:17.820Z,0.50
2018-12-08T11:12:45.846Z,1.90
2018-12-08T11:15:13.951Z,0.50
2018-12-08T11:17:42.045Z,1.97
2018-12-08T11:20:10.197Z,1.20
2018-12-08T11:22:38.351Z,1.90
2018-12-08T11:25:06.558Z,0.73
2018-12-08T11:27:34.649Z,0.50
2018-12-08T11:30:02.899Z,3.73
2018-12-08T11:32:30.946Z,1.90
2018-12-08T11:34:58.985Z,0.60
2018-12-08T11:37:27.206Z,0.50
2018-12-08T11:39:55.233Z,0.50
2018-12-08T11:45:05.330Z,0.60
2018-12-08T11:47:33.436Z,0.63
2018-12-08T11:50:01.475Z,0.70
2018-12-08T11:52:35.750Z,0.70
2018-12-08T11:55:03.923Z,0.70
2018-12-08T11:57:32.214Z,0.70
2018-12-08T12:00:00.246Z,0.83
2018-12-08T12:02:28.355Z,0.50
2018-12-08T12:04:56.388Z,2.20
2018-12-08T12:07:24.493Z,1.57
2018-12-08T12:09:52.602Z,1.00
2018-12-08T12:12:20.650Z,3.37
2018-12-08T12:14:49.558Z,1.00
2018-12-08T12:17:17.665Z,5.17
2018-12-08T12:19:45.861Z,3.17
2018-12-08T12:22:14.047Z,0.60
2018-12-08T12:24:42.183Z,6.03
2018-12-08T12:27:10.234Z,4.43
2018-12-08T12:29:38.300Z,1.07
2018-12-08T12:32:06.367Z,0.80
2018-12-08T12:34:34.402Z,2.00
2018-12-08T12:37:02.437Z,2.07
2018-12-08T12:39:30.490Z,2.40
2018-12-08T12:41:58.544Z,1.37
2018-12-08T12:44:26.712Z,3.50
2018-12-08T12:46:54.855Z,1.90
2018-12-08T12:49:22.988Z,3.43
2018-12-08T12:51:51.077Z,5.07
2018-12-08T12:54:19.159Z,4.33
2018-12-08T12:56:47.187Z,4.33
2018-12-08T12:59:15.244Z,2.20
2018-12-08T13:01:43.266Z,3.60
2018-12-08T13:04:11.381Z,5.40
2018-12-08T13:06:39.409Z,2.63
2018-12-08T13:09:07.599Z,5.30
2018-12-08T13:11:35.706Z,4.13
2018-12-08T13:14:04.055Z,5.23
2018-12-08T13:16:32.122Z,5.13
2018-12-08T13:19:00.255Z,4.50
2018-12-08T13:21:28.311Z,9.60
2018-12-08T13:23:56.366Z,11.17
2018-12-08T13:26:24.463Z,6.37
2018-12-08T13:28:52.509Z,10.80
2018-12-08T13:31:20.617Z,9.70
2018-12-08T13:33:51.734Z,7.80
2018-12-08T13:36:19.832Z,7.47
2018-12-08T13:38:48.030Z,11.97
2018-12-08T13:41:16.067Z,9.17
2018-12-08T13:43:52.993Z,10.13
2018-12-08T13:46:21.302Z,8.10
2018-12-08T13:48:49.574Z,13.43
2018-12-08T13:51:17.843Z,13.77
2018-12-08T13:53:45.951Z,16.27
2018-12-08T13:56:14.060Z,13.47
2018-12-08T13:58:42.190Z,9.23
2018-12-08T14:01:10.295Z,6.63
2018-12-08T14:03:38.329Z,9.03
2018-12-08T14:06:06.505Z,10.60
2018-12-08T14:08:34.553Z,10.20
2018-12-08T14:11:02.701Z,14.67
2018-12-08T14:13:30.774Z,11.40
2018-12-08T14:15:58.809Z,6.70
2018-12-08T14:18:26.894Z,14.10
2018-12-08T14:20:54.961Z,14.97
2018-12-08T14:23:23.011Z,8.03
2018-12-08T14:25:51.077Z,6.17
2018-12-08T14:28:19.282Z,13.67
2018-12-08T14:30:47.412Z,11.43
2018-12-08T14:33:15.499Z,13.37
2018-12-08T14:35:43.590Z,7.80
2018-12-08T14:38:11.654Z,18.43
2018-12-08T14:40:39.828Z,8.67
2018-12-08T14:43:07.952Z,14.70
2018-12-08T14:45:36.299Z,9.13
2018-12-08T14:48:04.444Z,14.10
2018-12-08T14:50:32.555Z,13.23
2018-12-08T14:53:01.664Z,9.13
2018-12-08T14:55:29.748Z,11.50
2018-12-08T14:57:57.790Z,6.93
2018-12-08T15:00:25.867Z,6.13
2018-12-08T15:02:53.909Z,5.23
2018-12-08T15:05:22.013Z,6.70
2018-12-08T15:07:50.067Z,11.83
2018-12-08T15:10:18.101Z,10.50
2018-12-08T15:12:46.166Z,9.07
2018-12-08T15:15:14.298Z,5.63
2018-12-08T15:17:42.359Z,13.30
2018-12-08T15:20:10.464Z,20.77
2018-12-08T15:22:38.553Z,16.37
2018-12-08T15:25:08.692Z,11.20
2018-12-08T15:27:36.795Z,10.80
2018-12-08T15:30:05.990Z,19.77
2018-12-08T15:32:34.018Z,11.47
2018-12-08T15:35:02.182Z,14.40
2018-12-08T15:37:30.301Z,14.60
2018-12-08T15:39:58.437Z,18.90
2018-12-08T15:42:27.047Z,16.33
2018-12-08T15:44:55.164Z,19.70
2018-12-08T15:47:23.300Z,16.23
2018-12-08T15:49:51.439Z,18.27
2018-12-08T15:52:19.843Z,20.50
2018-12-08T15:54:47.926Z,19.87
2018-12-08T15:57:15.950Z,14.83
2018-12-08T15:59:43.997Z,24.43
2018-12-08T16:02:12.098Z,16.30
2018-12-08T16:04:40.198Z,19.60
2018-12-08T16:07:08.308Z,12.67
2018-12-08T16:09:36.376Z,11.77
2018-12-08T16:12:04.517Z,14.77
2018-12-08T16:14:32.569Z,10.53
2018-12-08T16:17:00.592Z,12.10
2018-12-08T16:19:28.782Z,14.07
2018-12-08T16:21:56.968Z,21.17
2018-12-08T16:24:24.989Z,11.57
2018-12-08T16:26:53.082Z,15.87
2018-12-08T16:29:21.117Z,16.50
2018-12-08T16:31:49.165Z,23.10
2018-12-08T16:34:17.201Z,17.90
2018-12-08T16:36:45.309Z,21.97
2018-12-08T16:39:13.453Z,15.90
2018-12-08T16:41:41.611Z,22.17
2018-12-08T16:44:09.713Z,22.10
2018-12-08T16:46:37.828Z,25.00
2018-12-08T16:49:05.952Z,16.53
2018-12-08T16:51:34.081Z,25.17
2018-12-08T16:54:02.132Z,14.60
2018-12-08T16:56:30.225Z,29.80
2018-12-08T16:58:58.346Z,16.33
2018-12-08T17:01:26.401Z,24.77
2018-12-08T17:03:54.513Z,15.97
2018-12-08T17:06:22.613Z,27.07
2018-12-08T17:11:32.542Z,15.07
2018-12-08T17:14:00.701Z,23.73
2018-12-08T17:16:28.822Z,11.73
2018-12-08T17:18:56.962Z,14.20
2018-12-08T17:21:25.263Z,26.13
2018-12-08T17:23:53.513Z,25.60
2018-12-08T17:26:21.630Z,16.07
2018-12-08T17:28:49.796Z,18.27
2018-12-08T17:31:17.996Z,18.93
2018-12-08T17:33:46.068Z,35.67
2018-12-08T17:36:14.259Z,26.07
2018-12-08T17:38:42.558Z,31.07
2018-12-08T17:41:10.848Z,26.33
2018-12-08T17:43:39.008Z,24.47
2018-12-08T17:46:07.292Z,32.70
2018-12-08T17:48:35.455Z,30.50
2018-12-08T17:51:03.593Z,31.80
2018-12-08T17:53:32.094Z,34.50
2018-12-08T17:56:00.273Z,32.23
2018-12-08T17:58:28.515Z,28.83
2018-12-08T18:00:56.732Z,20.87
2018-12-08T18:03:24.903Z,23.27
2018-12-08T18:05:52.981Z,17.80
2018-12-08T18:08:21.101Z,28.30
2018-12-08T18:10:49.177Z,14.73
2018-12-08T18:13:17.345Z,18.70
2018-12-08T18:15:45.553Z,19.17
2018-12-08T18:18:13.714Z,15.83
2018-12-08T18:20:41.929Z,16.03
2018-12-08T18:23:10.066Z,10.07
2018-12-08T18:25:38.147Z,14.17
2018-12-08T18:28:06.461Z,10.63
2018-12-08T18:30:34.581Z,6.47
2018-12-08T18:33:02.672Z,9.60
2018-12-08T18:35:30.800Z,4.20
2018-12-08T18:37:58.930Z,10.30
2018-12-08T18:40:26.982Z,8.13
2018-12-08T18:45:36.570Z,5.13
2018-12-08T18:48:04.748Z,5.20
2018-12-08T18:50:32.879Z,2.13
2018-12-08T18:53:01.014Z,1.80
2018-12-08T18:55:29.153Z,26.27
2018-12-08T18:57:57.331Z,5.20
2018-12-08T19:00:25.446Z,2.83
2018-12-08T19:02:53.507Z,4.13
2018-12-08T19:05:21.562Z,4.47
2018-12-08T19:07:49.793Z,3.53
2018-12-08T19:10:17.973Z,5.70
2018-12-08T19:12:46.111Z,2.50
2018-12-08T19:15:14.339Z,2.00
2018-12-08T19:17:42.419Z,1.90
2018-12-08T19:20:10.558Z,1.13
2018-12-08T19:22:38.983Z,1.00
2018-12-08T19:25:07.651Z,3.23
2018-12-08T19:27:35.773Z,0.53
2018-12-08T19:30:03.926Z,1.43
2018-12-08T19:32:32.030Z,2.20
2018-12-08T19:35:00.130Z,1.23
2018-12-08T19:37:28.212Z,1.33
2018-12-08T19:39:56.356Z,0.77
2018-12-08T19:42:24.457Z,1.47
2018-12-08T19:44:52.597Z,1.33
2018-12-08T19:47:20.699Z,4.83
2018-12-08T19:49:48.777Z,1.20
2018-12-08T19:52:16.819Z,2.77
2018-12-08T19:54:44.970Z,1.13
2018-12-08T19:57:13.017Z,3.43
2018-12-08T19:59:41.117Z,1.33
2018-12-08T20:02:09.250Z,0.60
2018-12-08T20:04:37.329Z,2.70
2018-12-08T20:07:05.497Z,0.97
2018-12-08T20:09:33.648Z,1.43
2018-12-08T20:12:01.874Z,1.00
2018-12-08T20:14:29.953Z,0.60
2018-12-08T20:16:58.086Z,0.73
2018-12-08T20:19:26.150Z,0.50
2018-12-08T20:21:54.203Z,0.80
2018-12-08T20:24:22.466Z,0.50
2018-12-08T20:26:50.529Z,0.80
2018-12-08T20:29:18.599Z,0.50
2018-12-08T20:31:46.669Z,2.60
2018-12-08T20:34:14.795Z,0.60
2018-12-08T20:36:43.038Z,1.37
2018-12-08T20:39:11.177Z,0.60
2018-12-08T20:41:39.302Z,2.00
2018-12-08T20:44:07.431Z,0.50
2018-12-08T20:46:35.479Z,1.80
2018-12-08T20:49:03.554Z,0.57
2018-12-08T20:51:31.722Z,0.50
2018-12-08T20:53:59.886Z,0.50
2018-12-08T20:56:27.934Z,0.50
2018-12-08T20:58:56.035Z,1.53
2018-12-08T21:01:24.075Z,0.50
2018-12-08T21:03:52.121Z,1.90
2018-12-08T21:06:20.240Z,3.00
2018-12-08T21:08:48.331Z,2.97
2018-12-08T21:11:16.445Z,4.30
2018-12-08T21:13:44.536Z,0.97
2018-12-08T21:16:12.813Z,0.97
2018-12-08T21:18:40.905Z,0.50
2018-12-08T21:21:09.014Z,0.83
2018-12-08T21:23:37.393Z,0.50
2018-12-08T21:26:05.604Z,0.60
2018-12-08T21:28:33.731Z,0.50
2018-12-08T21:31:01.920Z,1.00
2018-12-08T21:33:30.188Z,1.07
2018-12-08T21:35:58.262Z,0.40
2018-12-08T21:38:26.335Z,0.50
2018-12-08T21:40:54.397Z,0.50
2018-12-08T21:43:22.454Z,1.30
2018-12-08T21:45:50.624Z,0.40
2018-12-08T21:48:18.675Z,0.50
2018-12-08T21:50:46.793Z,0.40
2018-12-08T21:53:14.867Z,0.87
2018-12-08T21:55:42.959Z,0.50
2018-12-08T21:58:11.039Z,0.50
2018-12-08T22:00:39.088Z,0.50
2018-12-08T22:03:07.176Z,0.97
2018-12-08T22:05:35.266Z,0.70
2018-12-08T22:08:03.513Z,0.50
2018-12-08T22:10:31.684Z,0.83
2018-12-08T22:12:59.720Z,2.50
2018-12-08T22:15:27.824Z,0.70
2018-12-08T22:17:56.077Z,1.07
2018-12-08T22:20:24.125Z,1.57
2018-12-08T22:22:52.222Z,0.57
2018-12-08T22:25:20.337Z,0.50
2018-12-08T22:27:48.400Z,1.10
2018-12-08T22:30:16.508Z,2.47
2018-12-08T22:32:44.661Z,1.73
2018-12-08T22:35:12.795Z,0.70
2018-12-08T22:37:40.911Z,0.97
2018-12-08T22:40:09.035Z,0.60
2018-12-08T22:45:12.373Z,2.93
2018-12-08T22:50:32.899Z,2.97
2018-12-08T22:53:00.950Z,0.97
2018-12-08T22:55:29.032Z,1.00
2018-12-08T22:57:57.197Z,2.87
2018-12-08T23:00:38.117Z,0.87
2018-12-08T23:03:06.262Z,1.47
2018-12-08T23:05:34.466Z,2.23
2018-12-08T23:08:02.661Z,1.30
2018-12-08T23:10:30.849Z,2.33
2018-12-08T23:12:58.987Z,3.63
2018-12-08T23:15:27.091Z,6.33
2018-12-08T23:17:55.275Z,1.10
2018-12-08T23:20:25.174Z,2.10
2018-12-08T23:22:53.451Z,1.67
2018-12-08T23:25:21.569Z,0.77
2018-12-08T23:27:49.877Z,2.20
2018-12-08T23:30:18.073Z,1.90
2018-12-08T23:32:46.143Z,7.17
2018-12-08T23:35:14.266Z,2.97
2018-12-08T23:37:42.417Z,7.63
2018-12-08T23:40:10.568Z,8.90
2018-12-08T23:42:38.697Z,7.53
2018-12-08T23:45:07.043Z,3.90
2018-12-08T23:47:35.189Z,7.10
2018-12-08T23:50:03.485Z,4.53
2018-12-08T23:52:31.558Z,5.93
2018-12-08T23:54:59.702Z,9.67
2018-12-08T23:57:27.759Z,7.77
2018-12-08T23:59:55.856Z,12.40
